M I D A S
Marine Information and Data Acquisition System
Tripno 1636 of the Zeeleeuw from 2009-01-29 07:42:15 to 2009-01-29 15:35:18
Back to CruiseResearch ActivitiesStationsMapUnderway DataData graphs

EquipmentUnitsComment
TimeDGPSUTC
LatitudeDGPSDM.mWGS84
LongitudeDGPSDM.mWGS84
HeadingGyrodeg 
SOGDGPSknotsSpeed over ground
COGDGPSdegCourse over ground
DepthEcho soundermeters200 kHz
Missing or incorrect values are displayed as -999
Navigation data collected by the RV Zeeleeuw from 2009-01-29 07:47:35 to 2009-01-29 15:43:16
                                                                                    Next 1000 lines
Time Latitude Longitude Heading SOG COG Depth
2009-01-29 07:47:45 51°13.662 2°55.957 112.6 0.8 300 4.9
2009-01-29 07:47:50 51°13.663 2°55.955 112.8 1 293 4.7
2009-01-29 07:47:55 51°13.664 2°55.952 112.8 1.3 298 4.6
2009-01-29 07:48:00 51°13.665 2°55.949 112.5 1.7 294 -999
2009-01-29 07:48:05 51°13.666 2°55.945 112.3 2 295 4.7
2009-01-29 07:48:10 51°13.667 2°55.94 112.3 2.2 294 -999
2009-01-29 07:48:15 51°13.669 2°55.935 112.4 2.4 295 -999
2009-01-29 07:48:20 51°13.67 2°55.93 112.8 2.6 295 -999
2009-01-29 07:48:25 51°13.672 2°55.925 113.3 2.8 296 -999
2009-01-29 07:48:30 51°13.674 2°55.919 113.7 3 296 -999
2009-01-29 07:48:35 51°13.676 2°55.912 114 3.2 296 -999
2009-01-29 07:48:40 51°13.678 2°55.906 114.4 3.3 297 -999
2009-01-29 07:48:45 51°13.68 2°55.899 114.4 3.4 296 -999
2009-01-29 07:48:50 51°13.682 2°55.892 114 3.4 295 -999
2009-01-29 07:48:55 51°13.684 2°55.885 113 3.5 292 -999
2009-01-29 07:49:00 51°13.686 2°55.878 111.4 3.5 292 -999
2009-01-29 07:49:05 51°13.687 2°55.871 110.1 3.5 290 -999
2009-01-29 07:49:10 51°13.689 2°55.863 109 3.5 290 -999
2009-01-29 07:49:15 51°13.691 2°55.856 107.4 3.5 288 -999
2009-01-29 07:49:20 51°13.692 2°55.848 105.6 3.6 287 -999
2009-01-29 07:49:25 51°13.694 2°55.841 104.2 3.6 286 -999
2009-01-29 07:49:30 51°13.695 2°55.833 103.1 3.7 285 -999
2009-01-29 07:49:35 51°13.696 2°55.824 101.6 3.8 284 -999
2009-01-29 07:49:40 51°13.697 2°55.816 100.4 3.8 283 -999
2009-01-29 07:49:45 51°13.698 2°55.808 99.1 3.8 283 -999
2009-01-29 07:49:50 51°13.699 2°55.8 98.2 3.7 282 -999
2009-01-29 07:49:55 51°13.7 2°55.792 96.9 3.7 280 -999
2009-01-29 07:50:00 51°13.701 2°55.784 95.6 3.6 281 -999
2009-01-29 07:50:05 51°13.702 2°55.777 94.2 3.4 279 -999
2009-01-29 07:50:10 51°13.703 2°55.77 93 3.2 279 -999
2009-01-29 07:50:15 51°13.703 2°55.764 91.6 2.7 278 -999
2009-01-29 07:50:20 51°13.704 2°55.76 88.8 2 280 -999
2009-01-29 07:50:25 51°13.704 2°55.757 85.2 1.3 283 -999
2009-01-29 07:50:30 51°13.705 2°55.755 81.5 0.7 313 -999
2009-01-29 07:50:35 51°13.705 2°55.756 74.8 0.6 21 -999
2009-01-29 07:50:40 51°13.707 2°55.758 69.3 1.1 38 -999
2009-01-29 07:50:45 51°13.709 2°55.76 61.5 1.7 41 -999
2009-01-29 07:50:50 51°13.71 2°55.763 55 1.8 41 11.9
2009-01-29 07:50:55 51°13.713 2°55.764 47.1 1.7 29 12.1
2009-01-29 07:51:00 51°13.714 2°55.766 42.7 1.2 29 -999
2009-01-29 07:51:04 51°13.715 2°55.766 39.3 0.8 14 11.3
2009-01-29 07:51:10 51°13.715 2°55.766 34.8 0.2 352 11.2
2009-01-29 07:51:15 51°13.714 2°55.764 31.2 0.6 232 11.3
2009-01-29 07:51:20 51°13.713 2°55.763 27.1 1.1 212 11.3
2009-01-29 07:51:25 51°13.711 2°55.762 23.6 1.5 210 5.1
2009-01-29 07:51:30 51°13.709 2°55.76 20.6 1.4 204 5.1
2009-01-29 07:51:35 51°13.707 2°55.759 17.7 1.7 200 -999
2009-01-29 07:51:40 51°13.705 2°55.758 14.5 1.6 199 -999
2009-01-29 07:51:45 51°13.703 2°55.757 12.6 1.4 199 -999
2009-01-29 07:51:50 51°13.702 2°55.756 11.5 0.9 208 -999
2009-01-29 07:51:55 51°13.702 2°55.756 9.2 0.3 311 -999
2009-01-29 07:52:00 51°13.703 2°55.755 4.7 1.1 344 4.7
2009-01-29 07:52:05 51°13.706 2°55.754 359.4 1.7 347 -999
2009-01-29 07:52:10 51°13.709 2°55.752 353.3 2.2 341 -999
2009-01-29 07:52:15 51°13.712 2°55.75 345.6 2.7 338 5.1
2009-01-29 07:52:20 51°13.716 2°55.746 339.9 3.4 331 4.8
2009-01-29 07:52:25 51°13.721 2°55.742 334.1 3.8 330 5
2009-01-29 07:52:30 51°13.726 2°55.737 330.6 4.2 328 10.9
2009-01-29 07:52:34 51°13.73 2°55.733 329.1 4.7 327 10.7
2009-01-29 07:52:40 51°13.738 2°55.725 328.4 5.4 327 10.3
2009-01-29 07:52:45 51°13.744 2°55.718 328.5 5.9 327 9.9
2009-01-29 07:52:50 51°13.752 2°55.71 328.1 6.2 327 9.6
2009-01-29 07:52:54 51°13.758 2°55.704 328.1 6.6 329 9
2009-01-29 07:53:00 51°13.768 2°55.695 329.3 6.9 329 8.7
2009-01-29 07:53:05 51°13.777 2°55.686 329.9 7.3 330 8.6
2009-01-29 07:53:10 51°13.785 2°55.678 330 7.5 329 8.7
2009-01-29 07:53:15 51°13.795 2°55.67 330.1 7.6 331 8.6
2009-01-29 07:53:20 51°13.804 2°55.662 331.2 7.9 332 8.7
2009-01-29 07:53:25 51°13.814 2°55.654 332 8 332 8.6
2009-01-29 07:53:30 51°13.824 2°55.645 332.6 8.1 333 8.6
2009-01-29 07:53:35 51°13.834 2°55.637 332.9 8.2 333 8.6
2009-01-29 07:53:40 51°13.845 2°55.629 333 8.3 333 8.5
2009-01-29 07:53:45 51°13.855 2°55.621 333.7 8.4 335 8.4
2009-01-29 07:53:50 51°13.866 2°55.612 334.2 8.5 333 8.3
2009-01-29 07:53:55 51°13.877 2°55.604 334.2 8.6 334 8.4
2009-01-29 07:54:00 51°13.887 2°55.596 334.5 8.7 334 8.4
2009-01-29 07:54:05 51°13.898 2°55.587 335 8.7 334 8.5
2009-01-29 07:54:10 51°13.909 2°55.579 335.1 8.8 334 8.6
2009-01-29 07:54:14 51°13.918 2°55.572 335.4 8.8 335 8.6
2009-01-29 07:54:20 51°13.931 2°55.562 336.1 8.8 335 8.7
2009-01-29 07:54:25 51°13.942 2°55.554 336.2 8.9 335 8.7
2009-01-29 07:54:30 51°13.953 2°55.546 336 8.9 336 8.7
2009-01-29 07:54:34 51°13.962 2°55.54 337.2 8.9 337 8.7
2009-01-29 07:54:40 51°13.976 2°55.53 337.7 8.9 334 8.7
2009-01-29 07:54:45 51°13.987 2°55.522 336.4 8.9 337 8.6
2009-01-29 07:54:50 51°13.998 2°55.514 336.9 8.9 336 8.6
2009-01-29 07:54:55 51°14.009 2°55.506 337.7 8.9 336 8.6
2009-01-29 07:55:00 51°14.02 2°55.497 337.1 8.9 334 8.5
2009-01-29 07:55:05 51°14.032 2°55.489 335.9 8.9 334 8.6
2009-01-29 07:55:10 51°14.043 2°55.48 335.3 8.9 334 8.6
2009-01-29 07:55:14 51°14.052 2°55.473 335.2 8.9 334 8.6
2009-01-29 07:55:20 51°14.065 2°55.462 335.5 8.9 332 8.7
2009-01-29 07:55:25 51°14.076 2°55.453 334.9 8.9 333 8.7
2009-01-29 07:55:30 51°14.087 2°55.444 334.1 8.9 332 -999
2009-01-29 07:55:35 51°14.098 2°55.436 335.3 8.9 334 -999
2009-01-29 07:55:40 51°14.109 2°55.426 335.6 8.9 332 8.7
2009-01-29 07:55:45 51°14.12 2°55.417 334.6 8.9 332 8.7
2009-01-29 07:55:50 51°14.13 2°55.407 333.9 8.9 331 -999
2009-01-29 07:55:55 51°14.141 2°55.398 333.3 8.9 331 -999
2009-01-29 07:56:00 51°14.152 2°55.389 333.4 8.9 331 8.8
2009-01-29 07:56:05 51°14.163 2°55.379 332.8 8.9 330 -999
2009-01-29 07:56:10 51°14.173 2°55.368 331.4 8.9 329 8.8
2009-01-29 07:56:15 51°14.184 2°55.358 330.3 8.9 327 8.8
2009-01-29 07:56:20 51°14.194 2°55.347 329.7 8.9 326 8.8
2009-01-29 07:56:25 51°14.204 2°55.335 328.4 8.9 324 8.8
2009-01-29 07:56:30 51°14.213 2°55.323 326.7 8.9 324 8.8
2009-01-29 07:56:34 51°14.221 2°55.313 325.3 8.9 321 8.9
2009-01-29 07:56:40 51°14.232 2°55.298 323.5 8.9 319 8.8
2009-01-29 07:56:45 51°14.241 2°55.285 321.5 8.9 318 8.7
2009-01-29 07:56:50 51°14.251 2°55.272 320.3 8.9 318 -999
2009-01-29 07:56:54 51°14.258 2°55.261 320.1 8.9 318 9.3
2009-01-29 07:57:00 51°14.269 2°55.245 319.6 9 317 8.7
2009-01-29 07:57:05 51°14.278 2°55.231 318.9 9 316 8.7
2009-01-29 07:57:10 51°14.286 2°55.217 318 9.1 315 8.8
2009-01-29 07:57:14 51°14.294 2°55.205 316.8 9.1 315 8.8
2009-01-29 07:57:20 51°14.304 2°55.188 316.2 9.2 313 8.7
2009-01-29 07:57:25 51°14.313 2°55.172 314.7 9.3 312 8.8
2009-01-29 07:57:30 51°14.322 2°55.157 313.3 9.3 312 8.9
2009-01-29 07:57:34 51°14.328 2°55.145 313 9.3 311 9
2009-01-29 07:57:40 51°14.338 2°55.126 312.5 9.3 310 9
2009-01-29 07:57:45 51°14.346 2°55.109 311.4 9.4 309 9
2009-01-29 07:57:50 51°14.354 2°55.093 310.2 9.4 309 9
2009-01-29 07:57:55 51°14.363 2°55.077 309.9 9.5 310 9
2009-01-29 07:58:00 51°14.371 2°55.061 309.9 9.5 308 8.9
2009-01-29 07:58:05 51°14.379 2°55.044 309.5 9.5 307 9.3
2009-01-29 07:58:10 51°14.387 2°55.027 308.3 9.6 307 9
2009-01-29 07:58:15 51°14.395 2°55.01 307.6 9.6 307 9.2
2009-01-29 07:58:20 51°14.403 2°54.993 307.7 9.7 309 8.9
2009-01-29 07:58:25 51°14.412 2°54.977 309.6 9.7 311 9.2
2009-01-29 07:58:29 51°14.419 2°54.965 312.4 9.6 313 9
2009-01-29 07:58:35 51°14.43 2°54.946 315.2 9.7 314 9.1
2009-01-29 07:58:40 51°14.44 2°54.931 317.4 9.7 315 9.1
2009-01-29 07:58:45 51°14.45 2°54.916 319.1 9.8 317 9.3
2009-01-29 07:58:50 51°14.46 2°54.901 320.6 9.9 318 9.1
2009-01-29 07:58:54 51°14.469 2°54.89 322.7 9.9 320 9.1
2009-01-29 07:59:00 51°14.482 2°54.874 325.4 9.9 323 9
2009-01-29 07:59:05 51°14.493 2°54.862 328.1 9.9 325 9
2009-01-29 07:59:10 51°14.504 2°54.849 330.5 9.9 327 8.9
2009-01-29 07:59:14 51°14.514 2°54.84 332.7 9.9 327 8.8
2009-01-29 07:59:20 51°14.528 2°54.826 334.4 10 328 8.7
2009-01-29 07:59:25 51°14.539 2°54.814 335.2 10 328 8.5
2009-01-29 07:59:30 51°14.551 2°54.802 335.4 10 327 8.5
2009-01-29 07:59:35 51°14.562 2°54.79 335.5 10.1 327 8.5
2009-01-29 07:59:40 51°14.574 2°54.777 335.5 10.1 327 8.3
2009-01-29 07:59:45 51°14.586 2°54.765 334.9 10.2 327 8.3
2009-01-29 07:59:50 51°14.597 2°54.752 334.4 10.2 326 8.3
2009-01-29 07:59:54 51°14.607 2°54.741 333.6 10.3 324 8.2
2009-01-29 08:00:00 51°14.62 2°54.726 333 10.3 324 8.2
2009-01-29 08:00:05 51°14.632 2°54.712 332.2 10.4 324 8.2
2009-01-29 08:00:10 51°14.644 2°54.698 331.8 10.4 324 8.2
2009-01-29 08:00:15 51°14.655 2°54.684 331.7 10.5 324 8.2
2009-01-29 08:00:20 51°14.667 2°54.671 331.5 10.6 325 8.2
2009-01-29 08:00:25 51°14.679 2°54.658 331.5 10.6 325 8.3
2009-01-29 08:00:30 51°14.692 2°54.644 331.8 10.7 326 8.3
2009-01-29 08:00:35 51°14.704 2°54.63 332 10.8 325 8.4
2009-01-29 08:00:40 51°14.716 2°54.617 332 10.8 325 8.4
2009-01-29 08:00:45 51°14.728 2°54.603 331.7 10.8 325 8.3
2009-01-29 08:00:50 51°14.74 2°54.589 331.6 10.9 325 8.3
2009-01-29 08:00:55 51°14.753 2°54.575 331.6 11 325 8.3
2009-01-29 08:01:00 51°14.766 2°54.561 331.6 11.1 325 8.2
2009-01-29 08:01:05 51°14.778 2°54.547 331.6 11.2 326 8.2
2009-01-29 08:01:09 51°14.789 2°54.535 331.6 11.3 325 8
2009-01-29 08:01:14 51°14.802 2°54.521 331.5 11.5 326 8.1
2009-01-29 08:01:20 51°14.818 2°54.504 331.4 11.6 325 8
2009-01-29 08:01:25 51°14.831 2°54.489 331.2 11.7 325 8
2009-01-29 08:01:30 51°14.844 2°54.474 330.8 11.7 324 8
2009-01-29 08:01:34 51°14.855 2°54.462 330.2 11.7 324 7.9
2009-01-29 08:01:40 51°14.871 2°54.443 329.6 11.8 323 7.8
2009-01-29 08:01:45 51°14.883 2°54.427 328.8 11.8 323 7.8
2009-01-29 08:01:50 51°14.896 2°54.411 328.3 11.8 323 7.7
2009-01-29 08:01:54 51°14.907 2°54.399 328.1 11.8 323 7.5
2009-01-29 08:02:00 51°14.922 2°54.381 328.1 11.7 324 7.4
2009-01-29 08:02:05 51°14.935 2°54.365 328.9 11.6 324 7.2
2009-01-29 08:02:10 51°14.948 2°54.35 329.1 11.6 324 6.9
2009-01-29 08:02:14 51°14.959 2°54.338 329.2 11.5 324 6.9
2009-01-29 08:02:20 51°14.974 2°54.32 329.2 11.5 324 6.7
2009-01-29 08:02:25 51°14.987 2°54.305 329.2 11.5 324 6.7
2009-01-29 08:02:30 51°15 2°54.289 329.1 11.5 323 6.6
2009-01-29 08:02:35 51°15.012 2°54.274 329 11.5 323 6.6
2009-01-29 08:02:40 51°15.025 2°54.259 328.7 11.6 323 6.6
2009-01-29 08:02:45 51°15.038 2°54.243 328.6 11.6 323 6.7
2009-01-29 08:02:50 51°15.051 2°54.228 328.5 11.6 323 6.8
2009-01-29 08:02:55 51°15.064 2°54.213 328.5 11.6 323 6.7
2009-01-29 08:03:00 51°15.077 2°54.197 328.7 11.6 323 6.7
2009-01-29 08:03:05 51°15.09 2°54.182 328.7 11.7 323 6.7
2009-01-29 08:03:10 51°15.103 2°54.166 328.4 11.7 323 6.6
2009-01-29 08:03:15 51°15.116 2°54.15 328.3 11.7 323 6.9
2009-01-29 08:03:20 51°15.129 2°54.135 328.5 11.8 323 6.8
2009-01-29 08:03:25 51°15.142 2°54.119 328.7 11.8 324 6.8
2009-01-29 08:03:30 51°15.155 2°54.104 329.1 11.8 324 6.8
2009-01-29 08:03:35 51°15.169 2°54.09 329.6 11.8 326 7
2009-01-29 08:03:40 51°15.183 2°54.075 331.1 11.9 326 7
2009-01-29 08:03:45 51°15.196 2°54.061 331.9 11.9 327 7
2009-01-29 08:03:50 51°15.21 2°54.047 332.7 11.8 329 5.3
2009-01-29 08:03:55 51°15.225 2°54.034 333.7 11.9 329 7.1
2009-01-29 08:04:00 51°15.239 2°54.021 335.1 11.9 331 7.1
2009-01-29 08:04:05 51°15.253 2°54.008 335.7 11.9 331 7.2
2009-01-29 08:04:10 51°15.268 2°53.995 336.8 11.9 331 7.2
2009-01-29 08:04:14 51°15.279 2°53.985 337.1 11.9 331 7.3
2009-01-29 08:04:20 51°15.297 2°53.97 337.4 12 331 7.5
2009-01-29 08:04:25 51°15.311 2°53.957 337.6 12 331 7.6
2009-01-29 08:04:30 51°15.326 2°53.943 337 12.1 330 7.5
2009-01-29 08:04:35 51°15.34 2°53.929 336.4 12.1 330 7.7
2009-01-29 08:04:40 51°15.354 2°53.915 335.6 12.1 329 7.9
2009-01-29 08:04:45 51°15.369 2°53.901 334.9 12.1 329 8.1
2009-01-29 08:04:50 51°15.383 2°53.887 334.8 12.2 328 8.1
2009-01-29 08:04:55 51°15.397 2°53.873 334.6 12.2 329 8.2
2009-01-29 08:05:00 51°15.412 2°53.86 334.6 12.1 329 8.3
2009-01-29 08:05:05 51°15.426 2°53.846 334.6 12.1 329 8.5
2009-01-29 08:05:10 51°15.441 2°53.832 334.9 12.1 328 8.8
2009-01-29 08:05:15 51°15.455 2°53.818 334.9 12.1 328 9.3
2009-01-29 08:05:20 51°15.469 2°53.804 334.8 12.1 328 9.5
2009-01-29 08:05:25 51°15.483 2°53.79 334.8 12.1 329 9.5
2009-01-29 08:05:29 51°15.495 2°53.779 334.8 12.1 329 9.5
2009-01-29 08:05:35 51°15.513 2°53.763 335.1 12 331 9.6
2009-01-29 08:05:40 51°15.527 2°53.75 336.3 12.1 330 9.7
2009-01-29 08:05:45 51°15.542 2°53.737 336.4 12 331 9.6
2009-01-29 08:05:50 51°15.556 2°53.724 337.3 12 330 9.6
2009-01-29 08:05:54 51°15.568 2°53.714 337.6 12 332 9.8
2009-01-29 08:06:00 51°15.586 2°53.699 338.3 12 331 9.9
2009-01-29 08:06:05 51°15.6 2°53.687 338.5 12 332 9.8
2009-01-29 08:06:10 51°15.615 2°53.674 338.9 12 332 9.9
2009-01-29 08:06:14 51°15.627 2°53.664 339 12 332 9.9
2009-01-29 08:06:20 51°15.645 2°53.65 339.4 12 333 9.9
2009-01-29 08:06:25 51°15.659 2°53.637 339.8 12.1 331 10.1
2009-01-29 08:06:30 51°15.674 2°53.624 339 12.1 330 10.1
2009-01-29 08:06:35 51°15.688 2°53.61 338.3 12.1 330 10.2
2009-01-29 08:06:40 51°15.703 2°53.597 337.8 12.1 329 10.2
2009-01-29 08:06:45 51°15.718 2°53.583 337.7 12.2 330 10.2
2009-01-29 08:06:50 51°15.732 2°53.57 337.6 12.1 330 10.3
2009-01-29 08:06:55 51°15.747 2°53.556 337.6 12.1 329 10.3
2009-01-29 08:07:00 51°15.761 2°53.542 337.3 12.1 330 10.5
2009-01-29 08:07:05 51°15.775 2°53.528 337.1 12.2 329 10.5
2009-01-29 08:07:10 51°15.79 2°53.515 336.7 12.1 330 10.4
2009-01-29 08:07:15 51°15.804 2°53.501 336.7 12.1 330 10.4
2009-01-29 08:07:20 51°15.819 2°53.487 337 12.1 330 10.6
2009-01-29 08:07:25 51°15.834 2°53.474 337 12.2 329 10.2
2009-01-29 08:07:30 51°15.848 2°53.46 337 12.2 330 10.5
2009-01-29 08:07:35 51°15.863 2°53.446 337 12.2 329 10.3
2009-01-29 08:07:40 51°15.877 2°53.433 336.8 12.1 329 10.4
2009-01-29 08:07:45 51°15.892 2°53.419 336.7 12.1 330 10.1
2009-01-29 08:07:50 51°15.906 2°53.406 336.7 12.1 330 10.4
2009-01-29 08:07:55 51°15.921 2°53.393 337.2 12.1 330 10
2009-01-29 08:08:00 51°15.936 2°53.379 337.2 12.1 331 10.4
2009-01-29 08:08:05 51°15.95 2°53.366 337.3 12.1 330 10.1
2009-01-29 08:08:10 51°15.965 2°53.353 337.3 12.1 330 10.3
2009-01-29 08:08:15 51°15.979 2°53.339 337.2 12.1 330 10.5
2009-01-29 08:08:20 51°15.993 2°53.325 336.9 12.1 330 10.1
2009-01-29 08:08:25 51°16.008 2°53.312 336.9 12.1 330 10.1
2009-01-29 08:08:30 51°16.022 2°53.298 336.9 12.1 330 10
2009-01-29 08:08:34 51°16.034 2°53.287 336.8 12 330 10.2
2009-01-29 08:08:40 51°16.051 2°53.273 337.6 12.1 332 10.1
2009-01-29 08:08:45 51°16.066 2°53.26 338.5 12 332 10
2009-01-29 08:08:50 51°16.081 2°53.248 339 12 333 10.2
2009-01-29 08:08:55 51°16.096 2°53.236 339.5 12 332 10.2
2009-01-29 08:09:00 51°16.11 2°53.224 339.7 12 332 10.1
2009-01-29 08:09:05 51°16.125 2°53.212 339.9 12 334 10.2
2009-01-29 08:09:10 51°16.14 2°53.199 340.3 12 333 10.1
2009-01-29 08:09:15 51°16.155 2°53.187 340.3 12 333 10.3
2009-01-29 08:09:20 51°16.17 2°53.175 340.2 12 333 10.2
2009-01-29 08:09:25 51°16.185 2°53.164 340.2 12 333 10.2
2009-01-29 08:09:30 51°16.2 2°53.152 340.2 12 334 10.3
2009-01-29 08:09:35 51°16.215 2°53.14 340.7 12 333 10.2
2009-01-29 08:09:40 51°16.229 2°53.128 340.6 12 333 10.2
2009-01-29 08:09:45 51°16.244 2°53.116 340.4 12 333 10.3
2009-01-29 08:09:50 51°16.259 2°53.104 340.4 12 333 10.3
2009-01-29 08:09:55 51°16.274 2°53.092 340.5 12 333 10.2
2009-01-29 08:10:00 51°16.289 2°53.079 340.7 12 333 10.3
2009-01-29 08:10:05 51°16.304 2°53.067 340.4 12 333 10.3
2009-01-29 08:10:10 51°16.319 2°53.056 340.4 12 333 10.3
2009-01-29 08:10:15 51°16.333 2°53.045 340.4 12 333 10.3
2009-01-29 08:10:20 51°16.349 2°53.032 340.1 12 333 10.3
2009-01-29 08:10:25 51°16.363 2°53.021 339.9 12 333 10.3
2009-01-29 08:10:30 51°16.378 2°53.009 339.9 12 333 10.4
2009-01-29 08:10:35 51°16.393 2°52.996 340.3 12 333 10.3
2009-01-29 08:10:40 51°16.408 2°52.984 340.5 12 333 10.3
2009-01-29 08:10:45 51°16.423 2°52.973 340.7 12 334 10.4
2009-01-29 08:10:50 51°16.437 2°52.961 340.7 12 334 10.3
2009-01-29 08:10:55 51°16.452 2°52.95 340.8 12 334 10.3
2009-01-29 08:11:00 51°16.467 2°52.938 340.8 12 334 10.3
2009-01-29 08:11:05 51°16.482 2°52.926 340.7 11.9 333 10.2
2009-01-29 08:11:10 51°16.497 2°52.915 340.4 11.9 333 10.2
2009-01-29 08:11:14 51°16.509 2°52.905 340.3 11.9 333 10.2
2009-01-29 08:11:20 51°16.527 2°52.892 340.1 11.9 334 10.2
2009-01-29 08:11:25 51°16.542 2°52.88 340.3 11.9 335 10.2
2009-01-29 08:11:30 51°16.556 2°52.869 340.8 11.9 335 10.2
2009-01-29 08:11:35 51°16.571 2°52.857 340.9 11.9 335 10.1
2009-01-29 08:11:40 51°16.586 2°52.846 340.7 11.9 335 10.2
2009-01-29 08:11:45 51°16.601 2°52.835 340.7 11.9 334 10.1
2009-01-29 08:11:50 51°16.616 2°52.823 340.3 11.9 334 10
2009-01-29 08:11:55 51°16.631 2°52.812 340.1 11.9 335 9.9
2009-01-29 08:12:00 51°16.646 2°52.801 340.4 11.9 335 9.8
2009-01-29 08:12:05 51°16.661 2°52.79 340.5 11.8 335 9.7
2009-01-29 08:12:10 51°16.676 2°52.779 340.5 11.8 336 9.6
2009-01-29 08:12:15 51°16.691 2°52.769 340.7 11.8 336 9.5
2009-01-29 08:12:20 51°16.705 2°52.758 340.8 11.8 336 9.4
2009-01-29 08:12:25 51°16.721 2°52.747 340.9 11.8 336 9.2
2009-01-29 08:12:30 51°16.735 2°52.737 340.7 11.8 336 8.9
2009-01-29 08:12:35 51°16.75 2°52.726 340.7 11.7 336 8.5
2009-01-29 08:12:40 51°16.765 2°52.715 340.6 11.7 335 8.2
2009-01-29 08:12:45 51°16.78 2°52.705 340.1 11.6 335 8.1
2009-01-29 08:12:50 51°16.794 2°52.694 340.1 11.6 335 8.2
2009-01-29 08:12:54 51°16.806 2°52.686 340.1 11.6 336 8.2
2009-01-29 08:13:00 51°16.824 2°52.673 340.4 11.7 335 8.2
2009-01-29 08:13:05 51°16.839 2°52.662 340.7 11.7 336 8.1
2009-01-29 08:13:10 51°16.853 2°52.652 340.5 11.7 335 8
2009-01-29 08:13:15 51°16.868 2°52.641 340.5 11.6 336 7.9
2009-01-29 08:13:20 51°16.883 2°52.63 340.5 11.7 335 8
2009-01-29 08:13:25 51°16.898 2°52.62 340.7 11.6 337 8
2009-01-29 08:13:30 51°16.912 2°52.609 341.1 11.7 335 8.2
2009-01-29 08:13:35 51°16.927 2°52.598 340.7 11.7 336 8.3
2009-01-29 08:13:40 51°16.942 2°52.587 340.6 11.8 334 8.3
2009-01-29 08:13:45 51°16.956 2°52.576 339.9 11.7 335 8.4
2009-01-29 08:13:50 51°16.971 2°52.565 339.9 11.8 335 8.3
2009-01-29 08:13:55 51°16.986 2°52.554 340.2 11.7 335 8.2
2009-01-29 08:14:00 51°17.001 2°52.543 340.4 11.7 335 8.1
2009-01-29 08:14:05 51°17.016 2°52.533 340.5 11.7 336 8.1
2009-01-29 08:14:10 51°17.03 2°52.522 340.6 11.6 336 8
2009-01-29 08:14:15 51°17.045 2°52.512 341.4 11.6 337 8.1
2009-01-29 08:14:20 51°17.06 2°52.501 342 11.6 336 8.1
2009-01-29 08:14:25 51°17.075 2°52.491 341.8 11.7 335 8.1
2009-01-29 08:14:30 51°17.089 2°52.48 341.2 11.7 335 8.2
2009-01-29 08:14:35 51°17.104 2°52.469 340.7 11.7 335 8.2
2009-01-29 08:14:40 51°17.119 2°52.458 340.4 11.7 334 8.2
2009-01-29 08:14:45 51°17.133 2°52.446 340 11.7 334 8.3
2009-01-29 08:14:50 51°17.148 2°52.435 339.9 11.7 334 8.4
2009-01-29 08:14:55 51°17.163 2°52.424 339.6 11.7 334 8.4
2009-01-29 08:15:00 51°17.177 2°52.413 339.9 11.7 334 8.4
2009-01-29 08:15:05 51°17.192 2°52.401 339.9 11.7 335 8.5
2009-01-29 08:15:10 51°17.206 2°52.39 340.2 11.7 333 8.5
2009-01-29 08:15:14 51°17.218 2°52.381 340.3 11.7 334 8.5
2009-01-29 08:15:20 51°17.235 2°52.364 338.3 11.8 327 8.7
2009-01-29 08:15:25 51°17.249 2°52.351 335.5 11.8 329 8.7
2009-01-29 08:15:30 51°17.262 2°52.335 335 11.9 325 8.7
2009-01-29 08:15:35 51°17.276 2°52.32 332.7 11.9 325 8.8
2009-01-29 08:15:40 51°17.289 2°52.304 330.8 11.9 323 8.9
2009-01-29 08:15:45 51°17.302 2°52.288 329.5 12 321 8.9
2009-01-29 08:15:50 51°17.315 2°52.271 327.8 12 320 8.9
2009-01-29 08:15:55 51°17.327 2°52.253 326.6 12 320 8.9
2009-01-29 08:16:00 51°17.34 2°52.236 325.6 12 319 8.9
2009-01-29 08:16:05 51°17.352 2°52.218 325 12.1 318 8.8
2009-01-29 08:16:10 51°17.365 2°52.2 324.2 12.1 318 8.9
2009-01-29 08:16:15 51°17.377 2°52.182 324 12.1 317 8.8
2009-01-29 08:16:20 51°17.389 2°52.164 323.6 12.1 317 8.9
2009-01-29 08:16:25 51°17.401 2°52.145 322.8 12.1 317 8.9
2009-01-29 08:16:30 51°17.414 2°52.127 322.5 12.1 317 8.9
2009-01-29 08:16:35 51°17.426 2°52.109 322.7 12.1 317 8.9
2009-01-29 08:16:40 51°17.438 2°52.09 322.8 12.1 316 8.9
2009-01-29 08:16:45 51°17.45 2°52.071 322.2 12.1 316 8.9
2009-01-29 08:16:50 51°17.462 2°52.053 321.8 12.1 316 8.9
2009-01-29 08:16:55 51°17.474 2°52.034 321.9 12.1 316 8.9
2009-01-29 08:17:00 51°17.487 2°52.016 322 12.1 317 9
2009-01-29 08:17:05 51°17.499 2°51.998 322.5 12.1 316 9
2009-01-29 08:17:10 51°17.511 2°51.979 322.5 12.1 316 9
2009-01-29 08:17:14 51°17.521 2°51.964 322.5 12.1 316 8.9
2009-01-29 08:17:20 51°17.535 2°51.941 322.2 12.1 315 8.9
2009-01-29 08:17:25 51°17.547 2°51.923 321.6 12.1 315 8.9
2009-01-29 08:17:30 51°17.558 2°51.903 321.1 12.1 314 8.8
2009-01-29 08:17:35 51°17.57 2°51.884 320.3 12.1 314 8.8
2009-01-29 08:17:40 51°17.582 2°51.864 319.9 12.1 313 8.8
2009-01-29 08:17:45 51°17.593 2°51.845 319.6 12.1 314 8.8
2009-01-29 08:17:50 51°17.605 2°51.826 319.6 12.1 313 8.8
2009-01-29 08:17:54 51°17.614 2°51.81 319.6 12.1 313 8.7
2009-01-29 08:18:00 51°17.628 2°51.787 319.4 12 314 8.6
2009-01-29 08:18:05 51°17.639 2°51.768 319.4 12 314 8.6
2009-01-29 08:18:10 51°17.651 2°51.749 319.4 12 314 8.5
2009-01-29 08:18:15 51°17.662 2°51.73 319.8 12 314 8.5
2009-01-29 08:18:20 51°17.674 2°51.711 320.1 12 315 8.5
2009-01-29 08:18:25 51°17.686 2°51.692 320.3 12 314 8.4
2009-01-29 08:18:30 51°17.698 2°51.674 320.3 12 315 8.3
2009-01-29 08:18:35 51°17.709 2°51.655 320.7 12 314 8.4
2009-01-29 08:18:40 51°17.721 2°51.636 320.7 12 315 8.4
2009-01-29 08:18:45 51°17.733 2°51.617 320.7 12 314 8.3
2009-01-29 08:18:49 51°17.742 2°51.602 320.5 12 315 8.3
2009-01-29 08:18:55 51°17.756 2°51.579 320.4 12 315 8.4
2009-01-29 08:19:00 51°17.768 2°51.561 320.7 12 315 8.4
2009-01-29 08:19:05 51°17.78 2°51.542 320.9 12 315 8.4
2009-01-29 08:19:10 51°17.792 2°51.523 320.8 12 316 8.4
2009-01-29 08:19:15 51°17.804 2°51.504 321.1 12.1 315 8.5
2009-01-29 08:19:20 51°17.815 2°51.486 321.1 12.1 315 8.5
2009-01-29 08:19:25 51°17.827 2°51.467 320.9 12.1 315 8.7
2009-01-29 08:19:30 51°17.839 2°51.448 320.9 12.1 316 8.7
2009-01-29 08:19:34 51°17.849 2°51.433 321.5 12.1 316 8.7
2009-01-29 08:19:40 51°17.864 2°51.411 321.8 12.1 316 8.8
2009-01-29 08:19:45 51°17.876 2°51.392 321.9 12.1 315 8.9
2009-01-29 08:19:50 51°17.888 2°51.373 321.8 12.2 315 8.9
2009-01-29 08:19:55 51°17.9 2°51.354 321.1 12.2 315 9
2009-01-29 08:20:00 51°17.911 2°51.335 320.7 12.2 315 9.1
2009-01-29 08:20:05 51°17.924 2°51.316 320.5 12.2 316 9.2
2009-01-29 08:20:10 51°17.936 2°51.297 321.1 12.2 315 9.3
2009-01-29 08:20:15 51°17.948 2°51.278 321.3 12.2 315 9.4
2009-01-29 08:20:20 51°17.96 2°51.258 321.3 12.3 315 9.5
2009-01-29 08:20:25 51°17.972 2°51.239 321.1 12.3 315 9.6
2009-01-29 08:20:30 51°17.984 2°51.22 320.7 12.3 315 9.7
2009-01-29 08:20:35 51°17.996 2°51.201 320.7 12.3 316 9.8
2009-01-29 08:20:40 51°18.008 2°51.182 321.3 12.3 315 9.9
2009-01-29 08:20:45 51°18.02 2°51.162 321.3 12.3 315 10
2009-01-29 08:20:50 51°18.032 2°51.143 321.1 12.3 315 10.2
2009-01-29 08:20:55 51°18.044 2°51.125 321 12.3 315 10.3
2009-01-29 08:21:00 51°18.057 2°51.105 321.1 12.3 315 10.5
2009-01-29 08:21:05 51°18.069 2°51.087 321.3 12.3 316 10.6
2009-01-29 08:21:10 51°18.081 2°51.067 321.6 12.3 316 10.6
2009-01-29 08:21:15 51°18.093 2°51.048 321.9 12.3 316 10.8
2009-01-29 08:21:20 51°18.105 2°51.029 322.1 12.3 315 10.8
2009-01-29 08:21:25 51°18.118 2°51.01 321.8 12.3 316 10.9
2009-01-29 08:21:29 51°18.127 2°50.995 321.8 12.3 315 11
2009-01-29 08:21:35 51°18.142 2°50.972 321.8 12.3 316 11.1
2009-01-29 08:21:40 51°18.154 2°50.953 321.8 12.3 315 11.1
2009-01-29 08:21:45 51°18.166 2°50.934 321.9 12.3 315 11.2
2009-01-29 08:21:50 51°18.179 2°50.915 321.9 12.3 316 11.3
2009-01-29 08:21:54 51°18.188 2°50.9 321.9 12.3 315 11.4
2009-01-29 08:22:00 51°18.203 2°50.877 322 12.3 316 11.5
2009-01-29 08:22:05 51°18.215 2°50.857 322.2 12.3 315 11.5
2009-01-29 08:22:10 51°18.227 2°50.839 321.8 12.3 317 11.6
2009-01-29 08:22:14 51°18.237 2°50.824 322.7 12.3 317 11.6
2009-01-29 08:22:20 51°18.253 2°50.802 323.3 12.3 318 11.7
2009-01-29 08:22:25 51°18.265 2°50.783 324 12.3 317 11.8
2009-01-29 08:22:30 51°18.278 2°50.765 324.1 12.3 319 11.9
2009-01-29 08:22:35 51°18.291 2°50.747 324.7 12.4 318 11.9
2009-01-29 08:22:40 51°18.303 2°50.729 324.6 12.4 319 11.9
2009-01-29 08:22:45 51°18.316 2°50.71 324.6 12.4 318 12
2009-01-29 08:22:50 51°18.329 2°50.692 324.7 12.4 318 12.2
2009-01-29 08:22:55 51°18.342 2°50.674 325 12.4 318 12.2
2009-01-29 08:23:00 51°18.355 2°50.656 325 12.4 318 12.3
2009-01-29 08:23:05 51°18.367 2°50.637 324.7 12.4 318 12.4
2009-01-29 08:23:10 51°18.38 2°50.619 324.6 12.4 318 12.5
2009-01-29 08:23:15 51°18.393 2°50.6 324.5 12.4 317 12.5
2009-01-29 08:23:20 51°18.405 2°50.581 324 12.4 316 12.5
2009-01-29 08:23:25 51°18.417 2°50.562 323.1 12.4 315 12.7
2009-01-29 08:23:30 51°18.429 2°50.542 322.5 12.4 314 12.6
2009-01-29 08:23:35 51°18.441 2°50.523 321.8 12.4 315 12.6
2009-01-29 08:23:40 51°18.453 2°50.503 321.2 12.4 314 12.7
2009-01-29 08:23:45 51°18.465 2°50.484 320.9 12.4 314 12.7
2009-01-29 08:23:50 51°18.477 2°50.464 320.5 12.4 315 12.7
2009-01-29 08:23:55 51°18.49 2°50.446 321.3 12.3 317 12.7
2009-01-29 08:24:00 51°18.502 2°50.426 322.5 12.4 315 12.8
2009-01-29 08:24:05 51°18.514 2°50.407 322.6 12.4 316 12.8
2009-01-29 08:24:10 51°18.527 2°50.389 322.6 12.3 317 12.8
2009-01-29 08:24:15 51°18.539 2°50.37 323.4 12.4 315 12.8
2009-01-29 08:24:20 51°18.551 2°50.35 322.7 12.4 316 12.8
2009-01-29 08:24:25 51°18.564 2°50.331 322.1 12.4 314 12.8
2009-01-29 08:24:30 51°18.576 2°50.311 321.6 12.4 315 12.9
2009-01-29 08:24:34 51°18.585 2°50.295 321.2 12.4 314 12.8
2009-01-29 08:24:40 51°18.6 2°50.272 321.1 12.4 314 12.8
2009-01-29 08:24:45 51°18.611 2°50.252 320.8 12.4 314 12.8
2009-01-29 08:24:50 51°18.624 2°50.233 320.6 12.4 316 12.8
2009-01-29 08:24:55 51°18.636 2°50.214 321.4 12.4 315 12.7
2009-01-29 08:25:00 51°18.649 2°50.195 322 12.4 318 12.7
2009-01-29 08:25:05 51°18.661 2°50.176 323.3 12.4 316 12.6
2009-01-29 08:25:10 51°18.674 2°50.157 323.5 12.4 317 12.5
2009-01-29 08:25:15 51°18.686 2°50.139 323.7 12.4 317 12.5
2009-01-29 08:25:20 51°18.699 2°50.12 324 12.4 317 12.3
2009-01-29 08:25:25 51°18.712 2°50.102 324 12.4 317 12.1
2009-01-29 08:25:30 51°18.724 2°50.083 324.1 12.4 318 12
2009-01-29 08:25:35 51°18.737 2°50.064 324.3 12.4 317 11.9
2009-01-29 08:25:40 51°18.75 2°50.046 324.4 12.4 318 11.7
2009-01-29 08:25:45 51°18.762 2°50.027 324.7 12.4 317 11.6
2009-01-29 08:25:49 51°18.773 2°50.013 324.3 12.4 318 11.5
2009-01-29 08:25:55 51°18.788 2°49.99 324.1 12.5 317 11.4
2009-01-29 08:26:00 51°18.801 2°49.971 323.7 12.4 317 11.2
2009-01-29 08:26:05 51°18.813 2°49.952 323.7 12.4 317 11.2
2009-01-29 08:26:10 51°18.826 2°49.934 323.9 12.4 317 11.1
2009-01-29 08:26:15 51°18.838 2°49.915 323.8 12.4 316 11
2009-01-29 08:26:20 51°18.85 2°49.895 323.3 12.4 315 10.9
2009-01-29 08:26:25 51°18.862 2°49.876 322.3 12.4 315 10.7
2009-01-29 08:26:30 51°18.875 2°49.856 321.8 12.4 315 10.2
2009-01-29 08:26:34 51°18.884 2°49.841 321.3 12.4 315 9.8
2009-01-29 08:26:40 51°18.899 2°49.817 321.1 12.4 315 9.4
2009-01-29 08:26:45 51°18.911 2°49.799 321.5 12.4 316 9.3
2009-01-29 08:26:50 51°18.923 2°49.779 322.2 12.4 314 9.5
2009-01-29 08:26:55 51°18.935 2°49.759 321.8 12.4 315 9.4
2009-01-29 08:27:00 51°18.947 2°49.739 321.3 12.5 314 9.5
2009-01-29 08:27:05 51°18.959 2°49.72 320.7 12.5 315 9.4
2009-01-29 08:27:10 51°18.972 2°49.7 320.6 12.5 314 9.3
2009-01-29 08:27:15 51°18.984 2°49.681 320.6 12.5 315 9.3
2009-01-29 08:27:20 51°18.996 2°49.662 320.8 12.4 316 9.2
2009-01-29 08:27:25 51°19.008 2°49.642 321.6 12.4 316 9.3
2009-01-29 08:27:30 51°19.021 2°49.623 321.7 12.5 316 9.4
2009-01-29 08:27:35 51°19.033 2°49.604 321.9 12.5 316 9.5
2009-01-29 08:27:40 51°19.046 2°49.585 322.3 12.5 316 9.7
2009-01-29 08:27:45 51°19.059 2°49.566 322.6 12.5 317 9.9
2009-01-29 08:27:50 51°19.071 2°49.547 322.9 12.5 317 10
2009-01-29 08:27:55 51°19.084 2°49.528 323.2 12.6 317 10.1
2009-01-29 08:28:00 51°19.097 2°49.509 323.3 12.6 317 10.2
2009-01-29 08:28:05 51°19.11 2°49.49 323 12.6 317 10.5
2009-01-29 08:28:10 51°19.123 2°49.471 322.9 12.5 318 10.7
2009-01-29 08:28:15 51°19.135 2°49.452 323.3 12.6 317 10.9
2009-01-29 08:28:20 51°19.149 2°49.434 323.3 12.6 318 11.1
2009-01-29 08:28:25 51°19.161 2°49.415 323.7 12.6 317 11.3
2009-01-29 08:28:30 51°19.174 2°49.396 323.3 12.6 318 11.5
2009-01-29 08:28:35 51°19.187 2°49.378 323.5 12.6 318 11.6
2009-01-29 08:28:40 51°19.2 2°49.359 323.7 12.6 317 11.7
2009-01-29 08:28:45 51°19.212 2°49.34 323.2 12.6 317 11.9
2009-01-29 08:28:50 51°19.225 2°49.321 323.1 12.6 317 11.9
2009-01-29 08:28:54 51°19.236 2°49.306 323.1 12.6 317 12
2009-01-29 08:29:00 51°19.251 2°49.284 323.4 12.5 319 12.1
2009-01-29 08:29:05 51°19.265 2°49.266 324.6 12.6 319 12.1
2009-01-29 08:29:10 51°19.278 2°49.247 325.4 12.6 319 12.1
2009-01-29 08:29:15 51°19.291 2°49.229 325.4 12.6 318 12
2009-01-29 08:29:20 51°19.304 2°49.21 324.5 12.6 318 12.3
2009-01-29 08:29:25 51°19.317 2°49.192 324 12.6 318 12.1
2009-01-29 08:29:30 51°19.33 2°49.173 324.3 12.6 318 12
2009-01-29 08:29:35 51°19.343 2°49.154 324.7 12.6 318 11.8
2009-01-29 08:29:40 51°19.356 2°49.136 324.6 12.6 317 12.1
2009-01-29 08:29:45 51°19.369 2°49.117 324 12.6 318 12.2
2009-01-29 08:29:50 51°19.382 2°49.099 324.2 12.6 319 12.7
2009-01-29 08:29:55 51°19.395 2°49.08 325.3 12.6 319 13.3
2009-01-29 08:30:00 51°19.409 2°49.062 325.6 12.6 319 13.7
2009-01-29 08:30:05 51°19.422 2°49.044 326.1 12.6 320 14.1
2009-01-29 08:30:10 51°19.436 2°49.027 326.7 12.6 320 14.5
2009-01-29 08:30:15 51°19.449 2°49.009 326.9 12.6 320 14.7
2009-01-29 08:30:20 51°19.462 2°48.991 327.1 12.6 321 14.9
2009-01-29 08:30:25 51°19.476 2°48.973 326.9 12.6 320 15
2009-01-29 08:30:30 51°19.489 2°48.956 326.7 12.6 320 15.2
2009-01-29 08:30:35 51°19.503 2°48.938 326.7 12.6 320 15.4
2009-01-29 08:30:40 51°19.516 2°48.92 326.9 12.6 320 15.6
2009-01-29 08:30:45 51°19.529 2°48.901 326.8 12.5 319 15.8
2009-01-29 08:30:50 51°19.543 2°48.884 326.3 12.5 319 15.9
2009-01-29 08:30:55 51°19.556 2°48.865 326 12.6 319 16
2009-01-29 08:31:00 51°19.569 2°48.847 326.1 12.6 320 16.2
2009-01-29 08:31:05 51°19.582 2°48.829 326.2 12.6 318 16.4
2009-01-29 08:31:10 51°19.595 2°48.811 325.6 12.5 319 16.5
2009-01-29 08:31:14 51°19.606 2°48.796 325.7 12.6 318 16.7
2009-01-29 08:31:20 51°19.621 2°48.774 325.7 12.6 319 16.9
2009-01-29 08:31:25 51°19.635 2°48.755 325.8 12.6 318 17
2009-01-29 08:31:30 51°19.647 2°48.737 325.6 12.6 318 17.2
2009-01-29 08:31:35 51°19.661 2°48.718 325.5 12.6 318 17.4
2009-01-29 08:31:40 51°19.674 2°48.7 325.4 12.6 319 17.7
2009-01-29 08:31:45 51°19.687 2°48.681 325.4 12.6 318 17.8
2009-01-29 08:31:50 51°19.7 2°48.662 325.2 12.6 317 18.2
2009-01-29 08:31:55 51°19.712 2°48.643 324.4 12.6 316 18.5
2009-01-29 08:32:00 51°19.725 2°48.624 323.8 12.6 318 18.7
2009-01-29 08:32:05 51°19.738 2°48.606 324.3 12.6 318 18.9
2009-01-29 08:32:10 51°19.751 2°48.587 324.7 12.6 319 19.1
2009-01-29 08:32:15 51°19.764 2°48.568 325.2 12.6 318 19.3
2009-01-29 08:32:20 51°19.777 2°48.55 325.4 12.6 318 19.5
2009-01-29 08:32:25 51°19.79 2°48.531 325.3 12.6 318 19.8
2009-01-29 08:32:30 51°19.803 2°48.512 324.9 12.6 317 20
2009-01-29 08:32:35 51°19.815 2°48.493 324.8 12.6 317 20.1
2009-01-29 08:32:40 51°19.828 2°48.473 324 12.6 316 20.2
2009-01-29 08:32:45 51°19.841 2°48.454 323.4 12.6 316 20.4
2009-01-29 08:32:50 51°19.853 2°48.434 323 12.6 315 20.6
2009-01-29 08:32:55 51°19.865 2°48.414 322.3 12.6 315 20.6
2009-01-29 08:33:00 51°19.877 2°48.394 321.9 12.6 314 20.8
2009-01-29 08:33:05 51°19.89 2°48.374 321.6 12.6 314 20.7
2009-01-29 08:33:10 51°19.902 2°48.354 321.4 12.6 314 20.7
2009-01-29 08:33:14 51°19.912 2°48.339 321.8 12.6 316 20.9
2009-01-29 08:33:20 51°19.927 2°48.316 322.8 12.5 316 20.9
2009-01-29 08:33:25 51°19.94 2°48.297 323.7 12.5 317 20.8
2009-01-29 08:33:30 51°19.952 2°48.278 324.3 12.5 316 20.9
2009-01-29 08:33:35 51°19.965 2°48.26 324.3 12.4 318 20.8
2009-01-29 08:33:40 51°19.978 2°48.242 325 12.5 318 20.8
2009-01-29 08:33:45 51°19.991 2°48.223 325.6 12.5 318 20.9
2009-01-29 08:33:50 51°20.004 2°48.204 325.6 12.5 318 20.8
2009-01-29 08:33:55 51°20.016 2°48.185 325.4 12.5 317 20.8
2009-01-29 08:34:00 51°20.029 2°48.167 325.5 12.5 318 20.9
2009-01-29 08:34:05 51°20.042 2°48.148 325.8 12.5 318 20.9
2009-01-29 08:34:10 51°20.055 2°48.129 326.2 12.5 318 20.8
2009-01-29 08:34:15 51°20.068 2°48.111 326.2 12.5 318 20.9
2009-01-29 08:34:20 51°20.081 2°48.093 326.5 12.5 318 20.9
2009-01-29 08:34:25 51°20.094 2°48.075 326.3 12.5 319 20.8
2009-01-29 08:34:30 51°20.106 2°48.056 326.7 12.5 318 20.8
2009-01-29 08:34:35 51°20.119 2°48.038 327.1 12.5 318 20.7
2009-01-29 08:34:40 51°20.132 2°48.019 326.8 12.4 319 20.9
2009-01-29 08:34:45 51°20.145 2°48.001 326.5 12.4 319 20.8
2009-01-29 08:34:50 51°20.158 2°47.984 326.8 12.4 320 20.7
2009-01-29 08:34:55 51°20.171 2°47.965 327.2 12.5 318 20.8
2009-01-29 08:35:00 51°20.184 2°47.947 326.5 12.5 319 20.7
2009-01-29 08:35:05 51°20.197 2°47.929 326.5 12.5 320 20.6
2009-01-29 08:35:10 51°20.211 2°47.911 327.4 12.5 320 20.5
2009-01-29 08:35:15 51°20.224 2°47.894 328.2 12.5 320 20.6
2009-01-29 08:35:20 51°20.238 2°47.876 328.7 12.5 321 20.5
2009-01-29 08:35:25 51°20.251 2°47.859 329.1 12.6 321 20.4
2009-01-29 08:35:30 51°20.265 2°47.841 329.8 12.6 321 20.2
2009-01-29 08:35:35 51°20.278 2°47.823 330 12.6 321 20.1
2009-01-29 08:35:40 51°20.292 2°47.806 329.9 12.6 321 20.1
2009-01-29 08:35:45 51°20.306 2°47.788 329.8 12.7 321 19.9
2009-01-29 08:35:50 51°20.319 2°47.77 329.8 12.7 320 19.6
2009-01-29 08:35:55 51°20.333 2°47.753 329.7 12.7 321 19.5
2009-01-29 08:36:00 51°20.347 2°47.735 329.5 12.7 320 19.3
2009-01-29 08:36:05 51°20.36 2°47.717 329.4 12.7 320 19.2
2009-01-29 08:36:10 51°20.374 2°47.699 329.6 12.7 320 19.1
2009-01-29 08:36:15 51°20.387 2°47.68 329.4 12.8 319 18.8
2009-01-29 08:36:20 51°20.401 2°47.662 328.6 12.7 321 18.8
2009-01-29 08:36:25 51°20.414 2°47.644 328.9 12.7 319 18.6
2009-01-29 08:36:30 51°20.428 2°47.626 329 12.7 320 18.6
2009-01-29 08:36:35 51°20.441 2°47.607 329.1 12.8 319 18.3
2009-01-29 08:36:40 51°20.455 2°47.589 328.7 12.7 320 16.9
2009-01-29 08:36:45 51°20.468 2°47.57 328.6 12.8 318 17.2
2009-01-29 08:36:50 51°20.482 2°47.552 328.2 12.8 320 17.4
2009-01-29 08:36:55 51°20.495 2°47.533 328.2 12.8 319 17.5
2009-01-29 08:37:00 51°20.509 2°47.515 328.3 12.8 320 17.5
2009-01-29 08:37:05 51°20.522 2°47.497 328.5 12.8 320 16.9
2009-01-29 08:37:10 51°20.536 2°47.479 328.9 12.8 320 16.5
2009-01-29 08:37:15 51°20.549 2°47.46 328.9 12.8 319 16.7
2009-01-29 08:37:20 51°20.562 2°47.441 327.9 12.8 318 16.9
2009-01-29 08:37:25 51°20.575 2°47.421 327.3 12.8 317 17.1
2009-01-29 08:37:30 51°20.589 2°47.402 326.5 12.9 318 17.2
2009-01-29 08:37:35 51°20.601 2°47.383 326.2 12.9 316 16.6
2009-01-29 08:37:40 51°20.614 2°47.363 325.4 12.9 317 15.3
2009-01-29 08:37:45 51°20.627 2°47.343 325 12.9 316 15.9
2009-01-29 08:37:50 51°20.64 2°47.324 324.7 12.8 317 16
2009-01-29 08:37:55 51°20.653 2°47.304 325.4 12.9 316 14.8
2009-01-29 08:38:00 51°20.666 2°47.284 325.4 12.9 316 14.5
2009-01-29 08:38:05 51°20.679 2°47.265 325.3 12.9 316 15.2
2009-01-29 08:38:10 51°20.693 2°47.245 325.2 13 317 15.7
2009-01-29 08:38:15 51°20.706 2°47.225 325.3 13 316 15.9
2009-01-29 08:38:20 51°20.719 2°47.206 325.5 13 318 16.1
2009-01-29 08:38:25 51°20.732 2°47.186 326 13 317 17.1
2009-01-29 08:38:30 51°20.746 2°47.167 325.9 13 318 17.6
2009-01-29 08:38:35 51°20.759 2°47.148 326 13 317 18.3
2009-01-29 08:38:40 51°20.772 2°47.128 326 13 317 18.7
2009-01-29 08:38:45 51°20.786 2°47.109 325.9 12.9 318 18.6
2009-01-29 08:38:50 51°20.799 2°47.091 326 12.8 320 17.9
2009-01-29 08:38:55 51°20.814 2°47.075 328.5 12.8 324 16.8
2009-01-29 08:39:00 51°20.828 2°47.058 331.8 12.7 324 15.7
2009-01-29 08:39:05 51°20.843 2°47.043 333.1 12.7 326 16.1
2009-01-29 08:39:10 51°20.857 2°47.027 335.1 12.7 326 16.6
2009-01-29 08:39:15 51°20.872 2°47.013 336.3 12.6 329 16.9
2009-01-29 08:39:20 51°20.887 2°46.999 337.6 12.6 329 17.9
2009-01-29 08:39:25 51°20.903 2°46.985 338.3 12.6 331 18.5
2009-01-29 08:39:30 51°20.919 2°46.975 340.2 12.4 337 19.5
2009-01-29 08:39:35 51°20.934 2°46.964 345 12.3 338 20.2
2009-01-29 08:39:40 51°20.95 2°46.956 347.6 12.2 342 20.4
2009-01-29 08:39:45 51°20.967 2°46.948 349.7 12.2 343 20.9
2009-01-29 08:39:50 51°20.983 2°46.941 352 12.2 344 21.2
2009-01-29 08:39:54 51°20.996 2°46.935 354 12.1 346 21.4
2009-01-29 08:40:00 51°21.016 2°46.928 355.4 12.1 347 21.6
2009-01-29 08:40:05 51°21.032 2°46.922 356.6 12.1 348 21.7
2009-01-29 08:40:10 51°21.049 2°46.917 357.3 12.1 349 22
2009-01-29 08:40:15 51°21.065 2°46.911 358 12.2 348 22
2009-01-29 08:40:20 51°21.082 2°46.907 358.2 12.1 350 22.2
2009-01-29 08:40:25 51°21.098 2°46.901 359 12.2 348 22.4
2009-01-29 08:40:30 51°21.115 2°46.896 359.2 12.1 349 22.3
2009-01-29 08:40:35 51°21.131 2°46.891 358.9 12.1 349 22.2
2009-01-29 08:40:40 51°21.148 2°46.886 359 12.1 350 22.2
2009-01-29 08:40:45 51°21.165 2°46.881 359.3 12.2 349 22.4
2009-01-29 08:40:50 51°21.181 2°46.876 359.3 12.2 349 22.5
2009-01-29 08:40:55 51°21.198 2°46.871 359.1 12.2 349 22.5
2009-01-29 08:41:00 51°21.214 2°46.866 359.2 12.1 349 22.5
2009-01-29 08:41:05 51°21.231 2°46.86 359.2 12.2 348 22.3
2009-01-29 08:41:10 51°21.247 2°46.855 358.6 12.2 349 22.3
2009-01-29 08:41:15 51°21.264 2°46.851 358.8 12.1 350 22.3
2009-01-29 08:41:20 51°21.281 2°46.845 359.6 12.2 349 22.2
2009-01-29 08:41:25 51°21.297 2°46.84 359.1 12.1 349 22.4
2009-01-29 08:41:30 51°21.314 2°46.835 358.8 12.2 348 22.9
2009-01-29 08:41:35 51°21.33 2°46.83 358.8 12.1 349 23.1
2009-01-29 08:41:40 51°21.347 2°46.824 358.7 12.2 348 22.9
2009-01-29 08:41:45 51°21.363 2°46.819 358.1 12.2 348 23.2
2009-01-29 08:41:50 51°21.38 2°46.815 357.9 12.1 350 23.5
2009-01-29 08:41:55 51°21.396 2°46.811 359.5 12 352 23.7
2009-01-29 08:42:00 51°21.413 2°46.807 0.3 12.1 352 23.9
2009-01-29 08:42:05 51°21.429 2°46.804 1 12 353 24
2009-01-29 08:42:10 51°21.446 2°46.8 1.9 12 352 23.8
2009-01-29 08:42:15 51°21.462 2°46.798 2.8 11.9 355 23.8
2009-01-29 08:42:20 51°21.479 2°46.795 3.5 12 354 24.2
2009-01-29 08:42:25 51°21.495 2°46.793 3.7 11.9 355 23.8
2009-01-29 08:42:30 51°21.512 2°46.79 3.7 12 354 23.9
2009-01-29 08:42:35 51°21.529 2°46.788 3.9 12 355 23.6
2009-01-29 08:42:40 51°21.545 2°46.785 3.9 12 355 23.5
2009-01-29 08:42:45 51°21.562 2°46.783 4.3 12 355 23.7
2009-01-29 08:42:50 51°21.578 2°46.781 4.1 12 355 23.5
2009-01-29 08:42:55 51°21.595 2°46.778 3.9 12 354 23.7
2009-01-29 08:43:00 51°21.611 2°46.776 3.7 11.9 355 23.7
2009-01-29 08:43:05 51°21.628 2°46.773 3.6 12 354 23.8
2009-01-29 08:43:10 51°21.644 2°46.771 3.4 11.9 355 23.5
2009-01-29 08:43:15 51°21.661 2°46.768 3.7 11.9 355 23.7
2009-01-29 08:43:20 51°21.678 2°46.765 3.5 12 354 23.7
2009-01-29 08:43:25 51°21.694 2°46.762 3.3 12 353 23.6
2009-01-29 08:43:30 51°21.711 2°46.757 2 12.1 349 23.6
2009-01-29 08:43:35 51°21.727 2°46.752 359.8 12.1 350 23.4
2009-01-29 08:43:40 51°21.743 2°46.743 358 12.2 343 23.5
2009-01-29 08:43:45 51°21.759 2°46.736 354.6 12.2 344 23.4
2009-01-29 08:43:50 51°21.775 2°46.725 352.7 12.3 338 23.4
2009-01-29 08:43:55 51°21.791 2°46.715 349.2 12.3 338 23.4
2009-01-29 08:44:00 51°21.806 2°46.702 347.1 12.4 332 23.3
2009-01-29 08:44:05 51°21.821 2°46.689 342.8 12.5 332 23.3
2009-01-29 08:44:10 51°21.836 2°46.674 340.4 12.5 329 23.2
2009-01-29 08:44:15 51°21.851 2°46.659 338.2 12.5 328 22.9
2009-01-29 08:44:20 51°21.865 2°46.643 336.3 12.6 325 22.9
2009-01-29 08:44:25 51°21.879 2°46.627 334.8 12.7 325 22.8
2009-01-29 08:44:30 51°21.893 2°46.608 333.2 12.8 319 22.5
2009-01-29 08:44:35 51°21.906 2°46.59 329.1 12.7 320 22.3
2009-01-29 08:44:40 51°21.919 2°46.57 326.9 12.9 316 22.2
2009-01-29 08:44:45 51°21.931 2°46.549 324.9 12.9 315 22
2009-01-29 08:44:50 51°21.944 2°46.529 323 13 314 21.9
2009-01-29 08:44:55 51°21.956 2°46.508 321.8 13 313 21.5
2009-01-29 08:45:00 51°21.968 2°46.486 320.3 13 312 21.3
2009-01-29 08:45:05 51°21.98 2°46.465 319.4 13 311 21.2
2009-01-29 08:45:10 51°21.992 2°46.443 318.7 13 311 21
2009-01-29 08:45:15 51°22.003 2°46.421 318.3 13 310 20.8
2009-01-29 08:45:20 51°22.015 2°46.399 317.5 12.9 310 20.6
2009-01-29 08:45:25 51°22.026 2°46.377 317.1 13 310 20.4
2009-01-29 08:45:30 51°22.038 2°46.355 317 12.9 310 20.3
2009-01-29 08:45:35 51°22.05 2°46.333 317.2 12.9 310 20.1
2009-01-29 08:45:40 51°22.061 2°46.311 317.7 12.9 310 19.9
2009-01-29 08:45:45 51°22.073 2°46.289 317.9 13 310 19.9
2009-01-29 08:45:50 51°22.084 2°46.267 317.5 12.9 310 19.8
2009-01-29 08:45:55 51°22.096 2°46.246 317.9 12.9 311 19.6
2009-01-29 08:46:00 51°22.108 2°46.224 317.9 12.9 309 19.7
2009-01-29 08:46:05 51°22.119 2°46.202 317 12.8 309 19.4
2009-01-29 08:46:10 51°22.13 2°46.18 316.4 12.8 308 19.6
2009-01-29 08:46:15 51°22.142 2°46.158 316 12.8 310 19.3
2009-01-29 08:46:20 51°22.153 2°46.136 316.9 12.8 310 19.2
2009-01-29 08:46:25 51°22.164 2°46.115 317.5 12.8 311 19.3
2009-01-29 08:46:30 51°22.176 2°46.093 317.6 12.8 310 19.2
2009-01-29 08:46:35 51°22.187 2°46.071 317.3 12.8 309 19.2
2009-01-29 08:46:40 51°22.199 2°46.05 316.7 12.8 311 19.2
2009-01-29 08:46:45 51°22.21 2°46.028 317.3 12.8 311 19.3
2009-01-29 08:46:50 51°22.222 2°46.007 318.2 12.8 311 19.1
2009-01-29 08:46:55 51°22.234 2°45.986 318.7 12.8 311 18.7
2009-01-29 08:47:00 51°22.246 2°45.965 318.9 12.8 312 18.3
2009-01-29 08:47:05 51°22.257 2°45.943 319.7 12.8 311 18.2
2009-01-29 08:47:10 51°22.269 2°45.922 319.5 12.8 312 18.6
2009-01-29 08:47:14 51°22.279 2°45.906 319.5 12.8 312 19.3
2009-01-29 08:47:20 51°22.293 2°45.88 319.8 12.8 311 19.9
2009-01-29 08:47:25 51°22.305 2°45.859 319.7 12.8 312 20.2
2009-01-29 08:47:30 51°22.317 2°45.838 319.6 12.8 313 20.4
2009-01-29 08:47:35 51°22.329 2°45.818 320.2 12.9 313 20.5
2009-01-29 08:47:40 51°22.341 2°45.796 320.3 12.8 312 20.8
2009-01-29 08:47:45 51°22.353 2°45.776 320.2 12.7 313 21.1
2009-01-29 08:47:50 51°22.365 2°45.755 320.5 12.8 312 21.2
2009-01-29 08:47:55 51°22.377 2°45.734 320.3 12.7 313 21.5
2009-01-29 08:48:00 51°22.389 2°45.713 320.3 12.7 311 21.6
2009-01-29 08:48:05 51°22.401 2°45.693 319.8 12.7 313 21.9
2009-01-29 08:48:10 51°22.412 2°45.672 320.2 12.7 312 22
2009-01-29 08:48:15 51°22.424 2°45.651 320.2 12.6 313 22.1
2009-01-29 08:48:20 51°22.436 2°45.63 320.2 12.7 312 22.1
2009-01-29 08:48:25 51°22.448 2°45.61 320.1 12.6 313 22.4
2009-01-29 08:48:30 51°22.46 2°45.59 320.4 12.6 313 22.5
2009-01-29 08:48:35 51°22.472 2°45.569 320.8 12.6 313 22.7
2009-01-29 08:48:40 51°22.483 2°45.549 320.4 12.6 312 22.9
2009-01-29 08:48:45 51°22.495 2°45.528 320.1 12.6 312 22.8
2009-01-29 08:48:50 51°22.507 2°45.507 319.7 12.7 312 23.1
2009-01-29 08:48:55 51°22.518 2°45.486 319.5 12.7 311 23.4
2009-01-29 08:49:00 51°22.53 2°45.465 319.3 12.7 312 23.4
2009-01-29 08:49:05 51°22.542 2°45.443 319.3 12.7 311 23.6
2009-01-29 08:49:10 51°22.553 2°45.422 318.7 12.7 309 23.5
2009-01-29 08:49:15 51°22.564 2°45.4 317.6 12.7 309 23.1
2009-01-29 08:49:20 51°22.575 2°45.378 317.4 12.7 310 22.8
2009-01-29 08:49:25 51°22.586 2°45.357 317.4 12.7 309 22.5
2009-01-29 08:49:30 51°22.598 2°45.335 317.1 12.7 309 22.4
2009-01-29 08:49:35 51°22.609 2°45.313 316.8 12.7 310 22.4
2009-01-29 08:49:40 51°22.62 2°45.292 317.4 12.7 310 23.3
2009-01-29 08:49:45 51°22.632 2°45.27 318.1 12.6 310 23.7
2009-01-29 08:49:50 51°22.643 2°45.249 318.1 12.7 310 24.3
2009-01-29 08:49:55 51°22.654 2°45.227 318.2 12.7 309 24.3
2009-01-29 08:50:00 51°22.666 2°45.206 317.9 12.7 310 24.3
2009-01-29 08:50:05 51°22.677 2°45.184 318.2 12.8 311 24.5
2009-01-29 08:50:10 51°22.689 2°45.163 318.2 12.7 311 24.3
2009-01-29 08:50:15 51°22.7 2°45.141 318.6 12.7 310 24.2
2009-01-29 08:50:20 51°22.711 2°45.119 318.2 12.7 310 24.4
2009-01-29 08:50:25 51°22.723 2°45.098 317.9 12.7 310 24.3
2009-01-29 08:50:30 51°22.734 2°45.076 318.2 12.7 310 24.1
2009-01-29 08:50:35 51°22.745 2°45.055 318.2 12.7 310 23.3
2009-01-29 08:50:40 51°22.757 2°45.033 318.6 12.7 310 24.3
2009-01-29 08:50:45 51°22.768 2°45.012 318.5 12.8 311 24.6
2009-01-29 08:50:50 51°22.78 2°44.99 318.7 12.7 311 24.7
2009-01-29 08:50:55 51°22.792 2°44.969 319.1 12.7 312 24
2009-01-29 08:51:00 51°22.804 2°44.949 320 12.7 312 24.5
2009-01-29 08:51:05 51°22.816 2°44.928 320.9 12.7 313 23.6
2009-01-29 08:51:10 51°22.828 2°44.907 321.7 12.8 313 23.6
2009-01-29 08:51:15 51°22.84 2°44.887 321.6 12.7 313 24.6
2009-01-29 08:51:20 51°22.852 2°44.866 321.8 12.7 313 25.1
2009-01-29 08:51:25 51°22.864 2°44.845 321.7 12.7 312 25.3
2009-01-29 08:51:30 51°22.876 2°44.824 320.8 12.8 312 25.4
2009-01-29 08:51:35 51°22.887 2°44.803 320.1 12.8 311 25.6
2009-01-29 08:51:40 51°22.899 2°44.781 319.3 12.8 311 25.2
2009-01-29 08:51:45 51°22.91 2°44.76 318.9 12.8 311 25.4
2009-01-29 08:51:50 51°22.922 2°44.739 318.9 12.8 313 25.5
2009-01-29 08:51:55 51°22.934 2°44.718 320.1 12.8 312 25.6
2009-01-29 08:52:00 51°22.946 2°44.697 320.8 12.8 313 25.4
2009-01-29 08:52:05 51°22.958 2°44.676 321 12.8 313 24.2
2009-01-29 08:52:10 51°22.97 2°44.656 321.1 12.7 313 25.8
2009-01-29 08:52:15 51°22.982 2°44.634 321.2 12.8 311 25.8
2009-01-29 08:52:20 51°22.994 2°44.614 320.1 12.7 312 25.6
2009-01-29 08:52:25 51°23.006 2°44.592 319.8 12.8 311 25.5
2009-01-29 08:52:30 51°23.017 2°44.572 319.6 12.7 313 25
2009-01-29 08:52:35 51°23.029 2°44.551 320.2 12.7 312 24.6
2009-01-29 08:52:40 51°23.042 2°44.53 320.7 12.7 313 23.6
2009-01-29 08:52:45 51°23.054 2°44.51 321.2 12.7 313 25.1
2009-01-29 08:52:50 51°23.066 2°44.489 321.8 12.7 314 25.6
2009-01-29 08:52:55 51°23.078 2°44.469 322 12.7 313 25.9
2009-01-29 08:53:00 51°23.09 2°44.448 321.4 12.7 313 26.1
2009-01-29 08:53:05 51°23.102 2°44.427 321.5 12.7 313 23.6
2009-01-29 08:53:10 51°23.114 2°44.407 321.8 12.7 313 24.6
2009-01-29 08:53:15 51°23.125 2°44.385 321.1 12.7 311 25.6
2009-01-29 08:53:20 51°23.137 2°44.365 320.3 12.6 312 25.8
2009-01-29 08:53:25 51°23.149 2°44.345 320.5 12.6 313 26.1
2009-01-29 08:53:30 51°23.161 2°44.324 321.1 12.7 313 25.9
2009-01-29 08:53:35 51°23.173 2°44.304 321.2 12.6 313 24.9
2009-01-29 08:53:40 51°23.185 2°44.283 321.3 12.6 312 25.5
2009-01-29 08:53:45 51°23.196 2°44.262 321.3 12.6 313 26
2009-01-29 08:53:50 51°23.208 2°44.242 321.2 12.6 313 25
2009-01-29 08:53:55 51°23.22 2°44.221 321.6 12.7 312 24.9
2009-01-29 08:54:00 51°23.232 2°44.2 321.4 12.6 313 24.1
2009-01-29 08:54:05 51°23.244 2°44.179 321.3 12.7 312 23.3
2009-01-29 08:54:10 51°23.256 2°44.159 321.5 12.6 313 25
2009-01-29 08:54:15 51°23.268 2°44.138 321.8 12.7 313 26.1
2009-01-29 08:54:20 51°23.28 2°44.118 321.8 12.7 313 26.1
2009-01-29 08:54:25 51°23.292 2°44.097 321.4 12.7 313 24.9
2009-01-29 08:54:30 51°23.303 2°44.076 321.1 12.7 312 25.1
2009-01-29 08:54:35 51°23.315 2°44.055 321.1 12.7 312 25.1
2009-01-29 08:54:40 51°23.327 2°44.035 321.1 12.7 313 25.5
2009-01-29 08:54:45 51°23.339 2°44.014 321.3 12.7 313 25.5
2009-01-29 08:54:50 51°23.351 2°43.994 321.5 12.7 313 25.5
2009-01-29 08:54:55 51°23.363 2°43.973 321.5 12.7 313 25.9
2009-01-29 08:55:00 51°23.375 2°43.953 321.3 12.7 313 25.7
2009-01-29 08:55:05 51°23.387 2°43.931 321.4 12.7 311 24.5
2009-01-29 08:55:10 51°23.398 2°43.909 320.8 12.7 311 24.2
2009-01-29 08:55:15 51°23.409 2°43.888 319.6 12.7 310 25
2009-01-29 08:55:20 51°23.421 2°43.866 318.9 12.7 310 25
2009-01-29 08:55:25 51°23.432 2°43.844 318.3 12.7 309 25.8
2009-01-29 08:55:30 51°23.443 2°43.822 318 12.7 309 25.9
2009-01-29 08:55:35 51°23.454 2°43.801 317.4 12.7 310 25.2
2009-01-29 08:55:40 51°23.465 2°43.779 317.8 12.7 309 22.8
2009-01-29 08:55:45 51°23.477 2°43.757 317.9 12.8 308 23.5
2009-01-29 08:55:50 51°23.488 2°43.735 317.9 12.8 309 23.6
2009-01-29 08:55:55 51°23.499 2°43.713 317.8 12.7 310 23.9
2009-01-29 08:56:00 51°23.51 2°43.692 318.2 12.7 309 24.2
2009-01-29 08:56:05 51°23.521 2°43.67 318.6 12.7 310 24.8
2009-01-29 08:56:10 51°23.533 2°43.648 318.6 12.7 310 24.7
2009-01-29 08:56:15 51°23.544 2°43.627 318.3 12.7 311 24.7
2009-01-29 08:56:20 51°23.555 2°43.605 318.9 12.7 310 25.1
2009-01-29 08:56:25 51°23.567 2°43.584 318.9 12.7 311 24.8
2009-01-29 08:56:30 51°23.578 2°43.562 319.3 12.7 310 25.1
2009-01-29 08:56:35 51°23.59 2°43.541 319.3 12.7 311 25.2
2009-01-29 08:56:40 51°23.601 2°43.52 319.1 12.6 311 25.3
2009-01-29 08:56:45 51°23.613 2°43.498 319.6 12.7 311 25.5
2009-01-29 08:56:50 51°23.624 2°43.477 319.2 12.7 310 25.6
2009-01-29 08:56:55 51°23.635 2°43.455 318.9 12.6 310 25.4
2009-01-29 08:57:00 51°23.647 2°43.434 318.7 12.7 311 26.1
2009-01-29 08:57:05 51°23.658 2°43.413 319.3 12.7 310 25.4
2009-01-29 08:57:10 51°23.669 2°43.392 319.2 12.7 310 25.6
2009-01-29 08:57:15 51°23.681 2°43.37 318.9 12.6 310 25.3
2009-01-29 08:57:20 51°23.692 2°43.349 318.9 12.6 311 25.4
2009-01-29 08:57:25 51°23.703 2°43.328 319.4 12.7 309 25.9
2009-01-29 08:57:30 51°23.715 2°43.307 318.9 12.5 312 26
2009-01-29 08:57:35 51°23.727 2°43.286 319.4 12.6 311 26.2
2009-01-29 08:57:40 51°23.739 2°43.266 319.8 12.6 314 26.2
2009-01-29 08:57:45 51°23.751 2°43.245 321 12.6 313 26.1
2009-01-29 08:57:50 51°23.762 2°43.224 321.5 12.6 313 25.8
2009-01-29 08:57:55 51°23.775 2°43.205 321.5 12.5 315 26
2009-01-29 08:58:00 51°23.787 2°43.184 322.4 12.6 313 25.3
2009-01-29 08:58:05 51°23.798 2°43.164 322.3 12.6 312 24.9
2009-01-29 08:58:10 51°23.81 2°43.142 321.5 12.7 311 22.6
2009-01-29 08:58:14 51°23.819 2°43.125 320.7 12.7 311 22.7
2009-01-29 08:58:20 51°23.833 2°43.1 320 12.7 311 23
2009-01-29 08:58:25 51°23.845 2°43.079 319.8 12.6 313 23.9
2009-01-29 08:58:30 51°23.857 2°43.058 320.4 12.7 313 24.9
2009-01-29 08:58:35 51°23.868 2°43.038 321.1 12.7 312 24.9
2009-01-29 08:58:40 51°23.881 2°43.017 321.6 12.7 314 25.5
2009-01-29 08:58:45 51°23.893 2°42.997 322.3 12.6 315 25.7
2009-01-29 08:58:50 51°23.905 2°42.977 322.6 12.6 314 25.5
2009-01-29 08:58:55 51°23.917 2°42.957 322.7 12.6 314 26.1
2009-01-29 08:59:00 51°23.929 2°42.937 322.7 12.6 313 26.4
2009-01-29 08:59:05 51°23.941 2°42.917 321.8 12.6 314 26.6
2009-01-29 08:59:10 51°23.953 2°42.896 321.8 12.6 313 26.8
2009-01-29 08:59:15 51°23.965 2°42.876 320.9 12.6 312 26.7
2009-01-29 08:59:20 51°23.976 2°42.854 320.4 12.6 311 26.3
2009-01-29 08:59:25 51°23.988 2°42.833 319.6 12.6 311 25.2
2009-01-29 08:59:30 51°23.999 2°42.812 319.1 12.6 311 23
2009-01-29 08:59:35 51°24.011 2°42.791 319.6 12.6 311 20.5
2009-01-29 08:59:40 51°24.022 2°42.771 320.6 12.6 312 20.3
2009-01-29 08:59:45 51°24.034 2°42.749 320.9 12.6 311 21.4
2009-01-29 08:59:50 51°24.045 2°42.728 320.2 12.6 311 22.3
2009-01-29 08:59:55 51°24.057 2°42.708 319.9 12.6 313 22.7
2009-01-29 09:00:00 51°24.069 2°42.687 320.8 12.6 313 23.1
2009-01-29 09:00:05 51°24.081 2°42.667 321.2 12.6 313 23.3
2009-01-29 09:00:10 51°24.093 2°42.646 321.5 12.6 313 23.2
2009-01-29 09:00:15 51°24.105 2°42.626 321.9 12.6 313 23.4
2009-01-29 09:00:20 51°24.116 2°42.605 321.9 12.6 313 24.5
2009-01-29 09:00:25 51°24.128 2°42.585 321.8 12.5 313 24.2
2009-01-29 09:00:30 51°24.14 2°42.565 321.7 12.5 314 24
2009-01-29 09:00:34 51°24.15 2°42.549 322 12.5 314 24.7
2009-01-29 09:00:40 51°24.164 2°42.524 322 12.6 313 24.7
2009-01-29 09:00:45 51°24.176 2°42.505 321.8 12.5 314 24.6
2009-01-29 09:00:50 51°24.188 2°42.484 322.3 12.6 312 24.5
2009-01-29 09:00:55 51°24.2 2°42.463 321.2 12.6 312 24.8
2009-01-29 09:01:00 51°24.211 2°42.442 320.3 12.6 311 24.1
2009-01-29 09:01:05 51°24.223 2°42.421 319.9 12.6 311 23.4
2009-01-29 09:01:10 51°24.234 2°42.399 319.4 12.6 311 23.1
2009-01-29 09:01:15 51°24.245 2°42.378 318.9 12.6 310 22.8
2009-01-29 09:01:20 51°24.256 2°42.356 318.3 12.7 310 22.2
2009-01-29 09:01:25 51°24.268 2°42.336 318.9 12.6 312 21.7
2009-01-29 09:01:30 51°24.279 2°42.314 319.7 12.6 310 20.5
2009-01-29 09:01:35 51°24.291 2°42.294 319.8 12.6 311 21.4
2009-01-29 09:01:40 51°24.303 2°42.273 320.3 12.6 312 21.7
2009-01-29 09:01:45 51°24.315 2°42.253 321.1 12.5 313 22.3
2009-01-29 09:01:50 51°24.327 2°42.232 321.5 12.6 313 22.9
2009-01-29 09:01:55 51°24.339 2°42.212 321.7 12.5 313 23.3
2009-01-29 09:02:00 51°24.35 2°42.192 321.6 12.5 313 23.6
2009-01-29 09:02:05 51°24.362 2°42.171 321.7 12.5 312 23.9
2009-01-29 09:02:10 51°24.374 2°42.151 321.1 12.5 313 24.4
2009-01-29 09:02:15 51°24.386 2°42.131 321.1 12.5 313 24.5
2009-01-29 09:02:20 51°24.398 2°42.111 321.6 12.5 313 25
2009-01-29 09:02:25 51°24.409 2°42.09 321.8 12.5 313 25
2009-01-29 09:02:30 51°24.421 2°42.07 321.3 12.5 312 25.1
2009-01-29 09:02:35 51°24.432 2°42.049 320.7 12.5 312 25.1
2009-01-29 09:02:40 51°24.444 2°42.028 320 12.5 310 25.6
2009-01-29 09:02:45 51°24.455 2°42.007 319 12.5 311 25.6
2009-01-29 09:02:50 51°24.466 2°41.986 319.3 12.5 309 25.6
2009-01-29 09:02:55 51°24.477 2°41.965 318.6 12.5 310 26
2009-01-29 09:03:00 51°24.488 2°41.943 318.2 12.5 309 25.9
2009-01-29 09:03:05 51°24.5 2°41.922 318.1 12.5 311 26.1
2009-01-29 09:03:10 51°24.511 2°41.902 318.4 12.5 312 25.6
2009-01-29 09:03:15 51°24.523 2°41.881 319.6 12.5 311 26.2
2009-01-29 09:03:20 51°24.534 2°41.861 320.1 12.4 313 25.9
2009-01-29 09:03:25 51°24.546 2°41.84 320.3 12.5 311 25.4
2009-01-29 09:03:30 51°24.557 2°41.819 320.3 12.5 310 25.3
2009-01-29 09:03:35 51°24.569 2°41.798 319.4 12.5 311 25
2009-01-29 09:03:40 51°24.58 2°41.777 319.4 12.5 311 25
2009-01-29 09:03:45 51°24.591 2°41.756 319.7 12.5 311 24.3
2009-01-29 09:03:50 51°24.603 2°41.736 320.3 12.5 313 23.9
2009-01-29 09:03:55 51°24.615 2°41.716 320.8 12.5 313 23.4
2009-01-29 09:04:00 51°24.627 2°41.696 321.3 12.4 313 23.4
2009-01-29 09:04:05 51°24.638 2°41.675 321.7 12.4 313 23.3
2009-01-29 09:04:10 51°24.65 2°41.655 321.6 12.4 312 23.4
2009-01-29 09:04:15 51°24.661 2°41.634 321.5 12.4 312 22.8
2009-01-29 09:04:20 51°24.672 2°41.613 321.1 12.4 310 20.6
2009-01-29 09:04:25 51°24.684 2°41.592 320.1 12.5 309 21.2
2009-01-29 09:04:30 51°24.695 2°41.571 319.5 12.5 310 22.6
2009-01-29 09:04:35 51°24.706 2°41.55 319.1 12.5 310 23.3
2009-01-29 09:04:40 51°24.717 2°41.529 318.9 12.4 310 24.9
2009-01-29 09:04:45 51°24.728 2°41.508 319.5 12.4 310 25.3
2009-01-29 09:04:50 51°24.739 2°41.486 319 12.5 309 25.9
2009-01-29 09:04:55 51°24.75 2°41.465 317.9 12.5 309 25.8
2009-01-29 09:05:00 51°24.761 2°41.444 317.8 12.5 310 25
2009-01-29 09:05:05 51°24.772 2°41.422 318.2 12.4 309 24.7
2009-01-29 09:05:10 51°24.783 2°41.401 318.6 12.5 310 24.3
2009-01-29 09:05:15 51°24.794 2°41.379 318.5 12.5 307 22.4
2009-01-29 09:05:20 51°24.804 2°41.357 317.6 12.5 308 19.9
2009-01-29 09:05:25 51°24.815 2°41.335 317.1 12.5 308 21.8
2009-01-29 09:05:30 51°24.826 2°41.314 316.9 12.5 309 22
2009-01-29 09:05:35 51°24.836 2°41.291 317.2 12.5 308 23.1
2009-01-29 09:05:40 51°24.847 2°41.27 317.4 12.5 308 24.4
2009-01-29 09:05:45 51°24.857 2°41.248 316.8 12.5 308 25.1
2009-01-29 09:05:50 51°24.868 2°41.226 316.7 12.5 308 24.9
2009-01-29 09:05:55 51°24.879 2°41.204 316.7 12.5 307 24.7
2009-01-29 09:06:00 51°24.89 2°41.182 316.6 12.5 308 24.5
2009-01-29 09:06:05 51°24.9 2°41.16 316.7 12.5 308 25.1
2009-01-29 09:06:10 51°24.911 2°41.139 316.7 12.5 309 23.9
2009-01-29 09:06:15 51°24.922 2°41.117 317 12.5 308 22.7
2009-01-29 09:06:20 51°24.932 2°41.094 316.9 12.5 306 23.8
2009-01-29 09:06:25 51°24.942 2°41.072 315.7 12.5 307 23.1
2009-01-29 09:06:30 51°24.953 2°41.05 315.7 12.5 307 24.1
2009-01-29 09:06:35 51°24.964 2°41.028 316.1 12.5 308 25
2009-01-29 09:06:40 51°24.974 2°41.007 316.5 12.4 309 25.2
2009-01-29 09:06:45 51°24.985 2°40.985 317 12.5 307 24.9
2009-01-29 09:06:50 51°24.996 2°40.963 316.9 12.5 308 24.4
2009-01-29 09:06:55 51°25.006 2°40.941 316.4 12.5 307 22.9
2009-01-29 09:07:00 51°25.017 2°40.919 316.4 12.6 307 24.6
2009-01-29 09:07:05 51°25.027 2°40.897 316.4 12.5 307 25
2009-01-29 09:07:10 51°25.038 2°40.875 316.2 12.6 308 25.4
2009-01-29 09:07:14 51°25.047 2°40.857 316.4 12.5 308 25.4
2009-01-29 09:07:20 51°25.059 2°40.831 316.4 12.6 308 25.9
2009-01-29 09:07:25 51°25.07 2°40.809 316.7 12.6 306 25.9
2009-01-29 09:07:30 51°25.08 2°40.786 315.9 12.5 306 25.9
2009-01-29 09:07:35 51°25.09 2°40.764 315.3 12.6 306 25.7
2009-01-29 09:07:40 51°25.101 2°40.741 314.7 12.6 306 25.4
2009-01-29 09:07:45 51°25.112 2°40.719 314.7 12.6 308 24.2
2009-01-29 09:07:50 51°25.122 2°40.696 315.8 12.6 307 24.5
2009-01-29 09:07:55 51°25.133 2°40.674 315.8 12.5 308 24.8
2009-01-29 09:08:00 51°25.143 2°40.652 316 12.5 307 24.8
2009-01-29 09:08:05 51°25.154 2°40.63 316.5 12.5 308 25.1
2009-01-29 09:08:10 51°25.164 2°40.608 316.7 12.6 307 24.7
2009-01-29 09:08:15 51°25.175 2°40.587 316.6 12.5 309 25.1
2009-01-29 09:08:20 51°25.186 2°40.564 316.9 12.5 308 25.7
2009-01-29 09:08:25 51°25.196 2°40.542 316.7 12.5 306 25.7
2009-01-29 09:08:30 51°25.206 2°40.52 315.5 12.5 306 25.2
2009-01-29 09:08:35 51°25.216 2°40.497 315.1 12.5 306 25
2009-01-29 09:08:40 51°25.226 2°40.474 314.2 12.6 305 24.8
2009-01-29 09:08:45 51°25.236 2°40.451 313.8 12.5 305 26.2
2009-01-29 09:08:50 51°25.246 2°40.429 313.8 12.5 305 25.7
2009-01-29 09:08:55 51°25.257 2°40.406 313.7 12.5 306 26.3
2009-01-29 09:09:00 51°25.266 2°40.383 314 12.5 305 25.4
2009-01-29 09:09:05 51°25.277 2°40.36 313.7 12.5 306 25.3
2009-01-29 09:09:10 51°25.287 2°40.338 313.8 12.5 306 25.1
2009-01-29 09:09:15 51°25.297 2°40.316 314.6 12.4 308 25.1
2009-01-29 09:09:20 51°25.308 2°40.295 316.2 12.4 308 25.6
2009-01-29 09:09:25 51°25.319 2°40.273 316.7 12.4 308 26
2009-01-29 09:09:30 51°25.33 2°40.251 317 12.4 308 26.2
2009-01-29 09:09:35 51°25.34 2°40.23 317.1 12.5 308 26.7
2009-01-29 09:09:40 51°25.351 2°40.208 316.8 12.5 309 26.6
2009-01-29 09:09:45 51°25.362 2°40.187 317.1 12.5 309 26.5
2009-01-29 09:09:50 51°25.373 2°40.165 317.4 12.5 309 26.7
2009-01-29 09:09:54 51°25.381 2°40.147 317.1 12.5 308 27
2009-01-29 09:10:00 51°25.394 2°40.121 316.7 12.4 308 27.5
2009-01-29 09:10:05 51°25.405 2°40.1 316.8 12.5 308 27.7
2009-01-29 09:10:10 51°25.415 2°40.078 316.8 12.5 308 27.9
2009-01-29 09:10:15 51°25.426 2°40.056 316.5 12.4 308 27.8
2009-01-29 09:10:20 51°25.437 2°40.035 317.1 12.4 310 27.9
2009-01-29 09:10:25 51°25.448 2°40.014 318.2 12.5 310 27.8
2009-01-29 09:10:30 51°25.459 2°39.993 318.9 12.4 311 28
2009-01-29 09:10:35 51°25.471 2°39.972 319.6 12.4 312 28.1
2009-01-29 09:10:40 51°25.482 2°39.951 320.6 12.5 311 28.1
2009-01-29 09:10:45 51°25.494 2°39.931 320.8 12.4 313 28.2
2009-01-29 09:10:50 51°25.506 2°39.911 321.7 12.5 312 28.2
2009-01-29 09:10:55 51°25.518 2°39.891 321.8 12.5 312 28.6